Terminal Aerodrome Forecast
Issued by NWS

Current Version | Previous Version | Text Only | Print | Product List | Glossary Off
Versions: 1 2 3 4 5 6 7 8 9 10 11 12 13 14 15 16 17 18 19 20 21 22 23

000
FTUS41 KPBZ 231100
TAFHLG
TAF
KHLG 231125Z 2312/2412 21004KT P6SM OVC017
     FM231400 VRB03KT P6SM SCT020 BKN150
     FM240300 VRB03KT 4SM -RASN OVC025
     FM240600 34002KT 2SM -SN OVC008
     FM240900 32003KT 4SM BR OVC012=

USA.gov is the U.S. government's official web portal to all federal, state and local government web resources and services.